sensor_id;sensor_type;location;lat;lon;timestamp;pressure;altitude;pressure_sealevel;temperature
67822;BMP180;54434;50.096;20.082;2023-03-14T00:01:39;97477.40;;;11.60
67822;BMP180;54434;50.096;20.082;2023-03-14T00:04:16;97465.80;;;11.60
67822;BMP180;54434;50.096;20.082;2023-03-14T00:06:52;97465.00;;;11.60
67822;BMP180;54434;50.096;20.082;2023-03-14T00:09:29;97467.40;;;11.60
67822;BMP180;54434;50.096;20.082;2023-03-14T00:12:08;97465.20;;;11.60
67822;BMP180;54434;50.096;20.082;2023-03-14T00:14:45;97463.60;;;11.50
67822;BMP180;54434;50.096;20.082;2023-03-14T00:17:21;97463.60;;;11.50
67822;BMP180;54434;50.096;20.082;2023-03-14T00:19:57;97463.40;;;11.46
67822;BMP180;54434;50.096;20.082;2023-03-14T00:22:39;97464.00;;;11.40
67822;BMP180;54434;50.096;20.082;2023-03-14T00:25:16;97461.80;;;11.38
67822;BMP180;54434;50.096;20.082;2023-03-14T00:27:54;97458.20;;;11.30
67822;BMP180;54434;50.096;20.082;2023-03-14T00:30:31;97448.80;;;11.30
67822;BMP180;54434;50.096;20.082;2023-03-14T00:33:07;97446.40;;;11.30
67822;BMP180;54434;50.096;20.082;2023-03-14T00:35:44;97453.00;;;11.20
67822;BMP180;54434;50.096;20.082;2023-03-14T00:38:31;97459.80;;;11.20
67822;BMP180;54434;50.096;20.082;2023-03-14T00:41:13;97451.20;;;11.12
67822;BMP180;54434;50.096;20.082;2023-03-14T00:43:48;97450.80;;;11.10
67822;BMP180;54434;50.096;20.082;2023-03-14T00:46:25;97448.40;;;11.00
67822;BMP180;54434;50.096;20.082;2023-03-14T00:49:01;97442.00;;;10.90
67822;BMP180;54434;50.096;20.082;2023-03-14T00:51:37;97429.20;;;10.76
67822;BMP180;54434;50.096;20.082;2023-03-14T00:54:14;97421.00;;;10.64
67822;BMP180;54434;50.096;20.082;2023-03-14T00:56:50;97412.20;;;10.50
67822;BMP180;54434;50.096;20.082;2023-03-14T00:59:26;97414.80;;;10.40
67822;BMP180;54434;50.096;20.082;2023-03-14T01:02:03;97401.20;;;10.30
67822;BMP180;54434;50.096;20.082;2023-03-14T01:04:39;97394.60;;;10.20
67822;BMP180;54434;50.096;20.082;2023-03-14T01:07:18;97390.00;;;10.10
67822;BMP180;54434;50.096;20.082;2023-03-14T01:09:57;97377.80;;;10.04
67822;BMP180;54434;50.096;20.082;2023-03-14T01:12:33;97372.20;;;10.00
67822;BMP180;54434;50.096;20.082;2023-03-14T01:15:11;97360.40;;;10.10
67822;BMP180;54434;50.096;20.082;2023-03-14T01:17:48;97351.20;;;10.10
67822;BMP180;54434;50.096;20.082;2023-03-14T01:20:25;97331.60;;;10.30
67822;BMP180;54434;50.096;20.082;2023-03-14T01:23:01;97318.40;;;10.36
67822;BMP180;54434;50.096;20.082;2023-03-14T01:25:43;97319.80;;;10.40
67822;BMP180;54434;50.096;20.082;2023-03-14T01:28:20;97312.00;;;10.50
67822;BMP180;54434;50.096;20.082;2023-03-14T01:30:57;97320.00;;;10.60
67822;BMP180;54434;50.096;20.082;2023-03-14T01:33:38;97318.20;;;10.60
67822;BMP180;54434;50.096;20.082;2023-03-14T01:36:16;97318.20;;;10.50
67822;BMP180;54434;50.096;20.082;2023-03-14T01:38:53;97311.60;;;10.40
67822;BMP180;54434;50.096;20.082;2023-03-14T01:41:30;97299.60;;;10.18
67822;BMP180;54434;50.096;20.082;2023-03-14T01:44:09;97286.40;;;9.96
67822;BMP180;54434;50.096;20.082;2023-03-14T01:46:47;97284.20;;;9.80
67822;BMP180;54434;50.096;20.082;2023-03-14T01:49:31;97287.00;;;9.68
67822;BMP180;54434;50.096;20.082;2023-03-14T01:52:21;97284.20;;;9.60
67822;BMP180;54434;50.096;20.082;2023-03-14T01:55:04;97298.20;;;9.50
67822;BMP180;54434;50.096;20.082;2023-03-14T01:57:45;97291.60;;;9.50
67822;BMP180;54434;50.096;20.082;2023-03-14T02:00:23;97288.20;;;9.50
67822;BMP180;54434;50.096;20.082;2023-03-14T02:03:07;97282.40;;;9.50
67822;BMP180;54434;50.096;20.082;2023-03-14T02:05:47;97281.00;;;9.50
67822;BMP180;54434;50.096;20.082;2023-03-14T02:08:29;97275.60;;;9.50
67822;BMP180;54434;50.096;20.082;2023-03-14T02:11:11;97263.60;;;9.50
67822;BMP180;54434;50.096;20.082;2023-03-14T02:13:57;97242.80;;;9.50
67822;BMP180;54434;50.096;20.082;2023-03-14T02:16:55;97229.80;;;9.58
67822;BMP180;54434;50.096;20.082;2023-03-14T02:20:32;97223.80;;;9.60
67822;BMP180;54434;50.096;20.082;2023-03-14T02:23:11;97217.80;;;9.60
67822;BMP180;54434;50.096;20.082;2023-03-14T02:25:57;97204.60;;;9.62
67822;BMP180;54434;50.096;20.082;2023-03-14T02:28:37;97208.20;;;9.70
67822;BMP180;54434;50.096;20.082;2023-03-14T02:31:14;97199.80;;;9.70
67822;BMP180;54434;50.096;20.082;2023-03-14T02:33:52;97202.00;;;9.70
67822;BMP180;54434;50.096;20.082;2023-03-14T02:36:29;97196.80;;;9.70
67822;BMP180;54434;50.096;20.082;2023-03-14T02:39:15;97188.20;;;9.70
67822;BMP180;54434;50.096;20.082;2023-03-14T02:41:54;97184.20;;;9.60
67822;BMP180;54434;50.096;20.082;2023-03-14T02:44:31;97173.20;;;9.50
67822;BMP180;54434;50.096;20.082;2023-03-14T02:47:08;97175.80;;;9.46
67822;BMP180;54434;50.096;20.082;2023-03-14T02:49:44;97176.40;;;9.40
67822;BMP180;54434;50.096;20.082;2023-03-14T02:52:21;97177.40;;;9.30
67822;BMP180;54434;50.096;20.082;2023-03-14T02:54:57;97171.80;;;9.30
67822;BMP180;54434;50.096;20.082;2023-03-14T02:57:34;97169.80;;;9.20
67822;BMP180;54434;50.096;20.082;2023-03-14T03:00:14;97161.20;;;9.20
67822;BMP180;54434;50.096;20.082;2023-03-14T03:02:51;97155.60;;;9.20
67822;BMP180;54434;50.096;20.082;2023-03-14T03:05:27;97162.00;;;9.10
67822;BMP180;54434;50.096;20.082;2023-03-14T03:08:04;97164.40;;;9.10
67822;BMP180;54434;50.096;20.082;2023-03-14T03:10:40;97162.40;;;9.08
67822;BMP180;54434;50.096;20.082;2023-03-14T03:13:17;97154.00;;;9.00
67822;BMP180;54434;50.096;20.082;2023-03-14T03:15:55;97149.60;;;8.90
67822;BMP180;54434;50.096;20.082;2023-03-14T03:18:32;97140.60;;;8.80
67822;BMP180;54434;50.096;20.082;2023-03-14T03:21:09;97143.20;;;8.78
67822;BMP180;54434;50.096;20.082;2023-03-14T03:23:46;97139.40;;;8.70
67822;BMP180;54434;50.096;20.082;2023-03-14T03:26:22;97134.00;;;8.60
67822;BMP180;54434;50.096;20.082;2023-03-14T03:28:58;97130.00;;;8.50
67822;BMP180;54434;50.096;20.082;2023-03-14T03:31:36;97127.20;;;8.30
67822;BMP180;54434;50.096;20.082;2023-03-14T03:34:12;97125.00;;;8.10
67822;BMP180;54434;50.096;20.082;2023-03-14T03:36:49;97125.80;;;7.98
67822;BMP180;54434;50.096;20.082;2023-03-14T03:39:25;97129.40;;;7.80
67822;BMP180;54434;50.096;20.082;2023-03-14T03:42:02;97126.60;;;7.60
67822;BMP180;54434;50.096;20.082;2023-03-14T03:44:39;97127.40;;;7.44
67822;BMP180;54434;50.096;20.082;2023-03-14T03:47:17;97127.20;;;7.30
67822;BMP180;54434;50.096;20.082;2023-03-14T03:49:53;97134.60;;;7.20
67822;BMP180;54434;50.096;20.082;2023-03-14T03:52:30;97120.20;;;7.10
67822;BMP180;54434;50.096;20.082;2023-03-14T03:55:08;97117.40;;;7.00
67822;BMP180;54434;50.096;20.082;2023-03-14T03:57:45;97111.40;;;7.00
67822;BMP180;54434;50.096;20.082;2023-03-14T04:00:22;97108.20;;;6.90
67822;BMP180;54434;50.096;20.082;2023-03-14T04:02:59;97105.40;;;6.80
67822;BMP180;54434;50.096;20.082;2023-03-14T04:05:35;97117.80;;;6.70
67822;BMP180;54434;50.096;20.082;2023-03-14T04:08:17;97121.60;;;6.60
67822;BMP180;54434;50.096;20.082;2023-03-14T04:10:58;97133.40;;;6.50
67822;BMP180;54434;50.096;20.082;2023-03-14T04:14:24;97134.80;;;6.40
67822;BMP180;54434;50.096;20.082;2023-03-14T04:17:14;97128.00;;;6.30
67822;BMP180;54434;50.096;20.082;2023-03-14T04:19:51;97127.40;;;6.30
67822;BMP180;54434;50.096;20.082;2023-03-14T04:22:31;97120.60;;;6.20
67822;BMP180;54434;50.096;20.082;2023-03-14T04:25:10;97125.80;;;6.12
67822;BMP180;54434;50.096;20.082;2023-03-14T04:27:52;97126.00;;;6.10
67822;BMP180;54434;50.096;20.082;2023-03-14T04:30:32;97124.80;;;6.10
67822;BMP180;54434;50.096;20.082;2023-03-14T04:33:19;97114.60;;;6.02
67822;BMP180;54434;50.096;20.082;2023-03-14T04:36:00;97114.80;;;6.10
67822;BMP180;54434;50.096;20.082;2023-03-14T04:38:36;97122.20;;;6.10
67822;BMP180;54434;50.096;20.082;2023-03-14T04:41:14;97124.80;;;6.00
67822;BMP180;54434;50.096;20.082;2023-03-14T04:43:51;97129.00;;;6.00
67822;BMP180;54434;50.096;20.082;2023-03-14T04:46:28;97127.60;;;6.00
67822;BMP180;54434;50.096;20.082;2023-03-14T04:49:06;97131.80;;;5.90
67822;BMP180;54434;50.096;20.082;2023-03-14T04:51:43;97131.40;;;5.90
67822;BMP180;54434;50.096;20.082;2023-03-14T04:54:19;97132.60;;;5.90
67822;BMP180;54434;50.096;20.082;2023-03-14T04:56:59;97139.20;;;5.80
67822;BMP180;54434;50.096;20.082;2023-03-14T04:59:38;97148.00;;;5.80
67822;BMP180;54434;50.096;20.082;2023-03-14T05:03:01;97142.40;;;5.80
67822;BMP180;54434;50.096;20.082;2023-03-14T05:05:37;97144.20;;;5.76
67822;BMP180;54434;50.096;20.082;2023-03-14T05:08:26;97153.40;;;5.70
67822;BMP180;54434;50.096;20.082;2023-03-14T05:11:19;97159.40;;;5.70
67822;BMP180;54434;50.096;20.082;2023-03-14T05:14:42;97159.00;;;5.62
67822;BMP180;54434;50.096;20.082;2023-03-14T05:17:19;97150.40;;;5.70
67822;BMP180;54434;50.096;20.082;2023-03-14T05:20:14;97154.80;;;5.80
67822;BMP180;54434;50.096;20.082;2023-03-14T05:23:46;97144.00;;;5.90
67822;BMP180;54434;50.096;20.082;2023-03-14T05:26:53;97151.00;;;5.98
67822;BMP180;54434;50.096;20.082;2023-03-14T05:29:44;97147.80;;;6.00
67822;BMP180;54434;50.096;20.082;2023-03-14T05:32:45;97141.60;;;6.10
67822;BMP180;54434;50.096;20.082;2023-03-14T05:35:25;97138.40;;;6.20
67822;BMP180;54434;50.096;20.082;2023-03-14T05:38:24;97125.40;;;6.30
67822;BMP180;54434;50.096;20.082;2023-03-14T05:41:17;97114.80;;;6.40
67822;BMP180;54434;50.096;20.082;2023-03-14T05:44:07;97112.00;;;6.54
67822;BMP180;54434;50.096;20.082;2023-03-14T05:47:02;97113.00;;;6.70
67822;BMP180;54434;50.096;20.082;2023-03-14T05:50:02;97103.80;;;6.90
67822;BMP180;54434;50.096;20.082;2023-03-14T05:52:42;97104.40;;;7.08
67822;BMP180;54434;50.096;20.082;2023-03-14T05:56:18;97106.60;;;7.26
67822;BMP180;54434;50.096;20.082;2023-03-14T05:59:06;97108.40;;;7.48
67822;BMP180;54434;50.096;20.082;2023-03-14T06:02:34;97106.80;;;7.70
67822;BMP180;54434;50.096;20.082;2023-03-14T06:05:14;97106.40;;;7.94
67822;BMP180;54434;50.096;20.082;2023-03-14T06:07:51;97086.20;;;8.20
67822;BMP180;54434;50.096;20.082;2023-03-14T06:10:27;97088.60;;;8.50
67822;BMP180;54434;50.096;20.082;2023-03-14T06:13:04;97089.80;;;8.70
67822;BMP180;54434;50.096;20.082;2023-03-14T06:15:40;97090.00;;;8.90
67822;BMP180;54434;50.096;20.082;2023-03-14T06:18:20;97093.80;;;9.08
67822;BMP180;54434;50.096;20.082;2023-03-14T06:20:59;97108.20;;;9.30
67822;BMP180;54434;50.096;20.082;2023-03-14T06:23:36;97103.20;;;9.50
67822;BMP180;54434;50.096;20.082;2023-03-14T06:26:14;97101.00;;;9.76
67822;BMP180;54434;50.096;20.082;2023-03-14T06:28:51;97102.00;;;10.00
67822;BMP180;54434;50.096;20.082;2023-03-14T06:31:29;97105.80;;;10.10
67822;BMP180;54434;50.096;20.082;2023-03-14T06:34:07;97105.40;;;10.44
67822;BMP180;54434;50.096;20.082;2023-03-14T06:36:43;97104.20;;;10.80
67822;BMP180;54434;50.096;20.082;2023-03-14T06:39:20;97108.00;;;11.00
67822;BMP180;54434;50.096;20.082;2023-03-14T06:42:00;97110.60;;;11.18
67822;BMP180;54434;50.096;20.082;2023-03-14T06:44:37;97103.00;;;11.30
67822;BMP180;54434;50.096;20.082;2023-03-14T06:47:14;97089.40;;;11.44
67822;BMP180;54434;50.096;20.082;2023-03-14T06:49:51;97096.20;;;11.60
67822;BMP180;54434;50.096;20.082;2023-03-14T06:52:28;97081.60;;;11.90
67822;BMP180;54434;50.096;20.082;2023-03-14T06:55:06;97074.80;;;12.18
67822;BMP180;54434;50.096;20.082;2023-03-14T06:57:43;97064.40;;;12.30
67822;BMP180;54434;50.096;20.082;2023-03-14T07:00:22;97065.80;;;12.40
67822;BMP180;54434;50.096;20.082;2023-03-14T07:03:02;97069.00;;;12.50
67822;BMP180;54434;50.096;20.082;2023-03-14T07:05:41;97069.00;;;12.78
67822;BMP180;54434;50.096;20.082;2023-03-14T07:08:17;97073.40;;;13.10
67822;BMP180;54434;50.096;20.082;2023-03-14T07:10:55;97065.20;;;13.50
67822;BMP180;54434;50.096;20.082;2023-03-14T07:13:32;97062.00;;;13.96
67822;BMP180;54434;50.096;20.082;2023-03-14T07:16:12;97074.40;;;14.50
67822;BMP180;54434;50.096;20.082;2023-03-14T07:18:49;97073.60;;;15.02
67822;BMP180;54434;50.096;20.082;2023-03-14T07:21:26;97073.00;;;15.54
67822;BMP180;54434;50.096;20.082;2023-03-14T07:24:03;97069.80;;;15.98
67822;BMP180;54434;50.096;20.082;2023-03-14T07:26:40;97068.20;;;16.30
67822;BMP180;54434;50.096;20.082;2023-03-14T07:29:18;97064.00;;;16.52
67822;BMP180;54434;50.096;20.082;2023-03-14T07:31:55;97066.40;;;16.70
67822;BMP180;54434;50.096;20.082;2023-03-14T07:34:31;97066.60;;;16.90
67822;BMP180;54434;50.096;20.082;2023-03-14T07:37:08;97061.00;;;17.00
67822;BMP180;54434;50.096;20.082;2023-03-14T07:39:45;97057.60;;;17.10
67822;BMP180;54434;50.096;20.082;2023-03-14T07:42:29;97062.40;;;17.20
67822;BMP180;54434;50.096;20.082;2023-03-14T07:45:18;97053.60;;;17.46
67822;BMP180;54434;50.096;20.082;2023-03-14T07:47:54;97046.80;;;17.84
67822;BMP180;54434;50.096;20.082;2023-03-14T07:50:32;97042.40;;;18.10
67822;BMP180;54434;50.096;20.082;2023-03-14T07:53:09;97045.80;;;18.20
67822;BMP180;54434;50.096;20.082;2023-03-14T07:55:46;97049.20;;;18.20
67822;BMP180;54434;50.096;20.082;2023-03-14T07:58:23;97048.20;;;18.20
67822;BMP180;54434;50.096;20.082;2023-03-14T08:01:01;97047.00;;;18.20
67822;BMP180;54434;50.096;20.082;2023-03-14T08:03:38;97054.00;;;18.10
67822;BMP180;54434;50.096;20.082;2023-03-14T08:06:15;97059.20;;;18.08
67822;BMP180;54434;50.096;20.082;2023-03-14T08:08:52;97064.40;;;18.00
67822;BMP180;54434;50.096;20.082;2023-03-14T08:11:28;97056.40;;;18.14
67822;BMP180;54434;50.096;20.082;2023-03-14T08:14:05;97068.80;;;18.44
67822;BMP180;54434;50.096;20.082;2023-03-14T08:16:42;97070.00;;;18.70
67822;BMP180;54434;50.096;20.082;2023-03-14T08:19:18;97070.00;;;18.80
67822;BMP180;54434;50.096;20.082;2023-03-14T08:21:56;97071.20;;;19.02
67822;BMP180;54434;50.096;20.082;2023-03-14T08:24:33;97076.80;;;19.18
67822;BMP180;54434;50.096;20.082;2023-03-14T08:27:09;97074.80;;;19.30
67822;BMP180;54434;50.096;20.082;2023-03-14T08:29:46;97075.20;;;19.30
67822;BMP180;54434;50.096;20.082;2023-03-14T08:32:22;97072.60;;;19.20
67822;BMP180;54434;50.096;20.082;2023-03-14T08:34:58;97064.80;;;19.10
67822;BMP180;54434;50.096;20.082;2023-03-14T08:37:36;97074.20;;;19.00
67822;BMP180;54434;50.096;20.082;2023-03-14T08:40:15;97080.40;;;18.70
67822;BMP180;54434;50.096;20.082;2023-03-14T08:42:52;97077.80;;;18.50
67822;BMP180;54434;50.096;20.082;2023-03-14T08:45:28;97068.40;;;18.50
67822;BMP180;54434;50.096;20.082;2023-03-14T08:48:06;97062.20;;;18.50
67822;BMP180;54434;50.096;20.082;2023-03-14T08:50:42;97068.20;;;18.50
67822;BMP180;54434;50.096;20.082;2023-03-14T08:53:19;97063.80;;;18.50
67822;BMP180;54434;50.096;20.082;2023-03-14T08:55:58;97060.00;;;18.50
67822;BMP180;54434;50.096;20.082;2023-03-14T08:58:35;97063.20;;;18.30
67822;BMP180;54434;50.096;20.082;2023-03-14T09:01:14;97066.80;;;18.10
67822;BMP180;54434;50.096;20.082;2023-03-14T09:03:50;97064.60;;;17.90
67822;BMP180;54434;50.096;20.082;2023-03-14T09:06:27;97065.60;;;17.80
67822;BMP180;54434;50.096;20.082;2023-03-14T09:09:03;97075.80;;;17.72
67822;BMP180;54434;50.096;20.082;2023-03-14T09:11:40;97084.00;;;17.70
67822;BMP180;54434;50.096;20.082;2023-03-14T09:14:16;97096.00;;;17.60
67822;BMP180;54434;50.096;20.082;2023-03-14T09:16:52;97107.00;;;17.50
67822;BMP180;54434;50.096;20.082;2023-03-14T09:19:29;97112.40;;;17.30
67822;BMP180;54434;50.096;20.082;2023-03-14T09:22:06;97114.60;;;17.20
67822;BMP180;54434;50.096;20.082;2023-03-14T09:24:43;97115.40;;;17.20
67822;BMP180;54434;50.096;20.082;2023-03-14T09:27:20;97110.40;;;17.10
67822;BMP180;54434;50.096;20.082;2023-03-14T09:29:56;97103.00;;;17.10
67822;BMP180;54434;50.096;20.082;2023-03-14T09:32:34;97087.60;;;17.00
67822;BMP180;54434;50.096;20.082;2023-03-14T09:35:11;97097.20;;;16.96
67822;BMP180;54434;50.096;20.082;2023-03-14T09:37:48;97106.40;;;16.88
67822;BMP180;54434;50.096;20.082;2023-03-14T09:40:27;97112.60;;;16.80
67822;BMP180;54434;50.096;20.082;2023-03-14T09:43:11;97118.80;;;16.70
67822;BMP180;54434;50.096;20.082;2023-03-14T09:45:51;97115.40;;;16.70
67822;BMP180;54434;50.096;20.082;2023-03-14T09:48:32;97108.40;;;16.70
67822;BMP180;54434;50.096;20.082;2023-03-14T09:51:17;97116.00;;;16.70
67822;BMP180;54434;50.096;20.082;2023-03-14T09:53:55;97125.40;;;16.78
67822;BMP180;54434;50.096;20.082;2023-03-14T09:56:35;97119.20;;;16.80
67822;BMP180;54434;50.096;20.082;2023-03-14T09:59:15;97116.60;;;16.70
67822;BMP180;54434;50.096;20.082;2023-03-14T10:01:52;97112.20;;;16.62
67822;BMP180;54434;50.096;20.082;2023-03-14T10:04:29;97122.20;;;16.64
67822;BMP180;54434;50.096;20.082;2023-03-14T10:07:09;97125.60;;;16.70
67822;BMP180;54434;50.096;20.082;2023-03-14T10:09:51;97125.00;;;16.90
67822;BMP180;54434;50.096;20.082;2023-03-14T10:12:37;97117.40;;;17.10
67822;BMP180;54434;50.096;20.082;2023-03-14T10:15:25;97133.80;;;17.20
67822;BMP180;54434;50.096;20.082;2023-03-14T10:18:09;97139.40;;;17.20
67822;BMP180;54434;50.096;20.082;2023-03-14T10:20:51;97143.80;;;17.20
67822;BMP180;54434;50.096;20.082;2023-03-14T10:23:38;97146.60;;;17.20
67822;BMP180;54434;50.096;20.082;2023-03-14T10:26:18;97148.20;;;17.20
67822;BMP180;54434;50.096;20.082;2023-03-14T10:29:11;97143.40;;;17.28
67822;BMP180;54434;50.096;20.082;2023-03-14T10:31:57;97143.80;;;17.40
67822;BMP180;54434;50.096;20.082;2023-03-14T10:34:39;97140.60;;;17.40
67822;BMP180;54434;50.096;20.082;2023-03-14T10:37:25;97142.40;;;17.40
67822;BMP180;54434;50.096;20.082;2023-03-14T10:40:12;97143.60;;;17.58
67822;BMP180;54434;50.096;20.082;2023-03-14T10:42:50;97139.20;;;17.70
67822;BMP180;54434;50.096;20.082;2023-03-14T10:45:41;97137.20;;;17.70
67822;BMP180;54434;50.096;20.082;2023-03-14T10:48:31;97140.00;;;17.70
67822;BMP180;54434;50.096;20.082;2023-03-14T10:51:11;97142.20;;;17.60
67822;BMP180;54434;50.096;20.082;2023-03-14T10:54:01;97143.60;;;17.50
67822;BMP180;54434;50.096;20.082;2023-03-14T10:56:40;97136.80;;;17.40
67822;BMP180;54434;50.096;20.082;2023-03-14T10:59:21;97142.20;;;17.30
67822;BMP180;54434;50.096;20.082;2023-03-14T11:02:19;97133.20;;;17.14
67822;BMP180;54434;50.096;20.082;2023-03-14T11:05:14;97137.00;;;17.00
67822;BMP180;54434;50.096;20.082;2023-03-14T11:07:56;97133.40;;;16.98
67822;BMP180;54434;50.096;20.082;2023-03-14T11:10:39;97124.60;;;16.90
67822;BMP180;54434;50.096;20.082;2023-03-14T11:13:26;97124.40;;;16.90
67822;BMP180;54434;50.096;20.082;2023-03-14T11:16:16;97121.60;;;16.80
67822;BMP180;54434;50.096;20.082;2023-03-14T11:19:41;97126.20;;;16.64
67822;BMP180;54434;50.096;20.082;2023-03-14T11:22:36;97132.40;;;16.50
67822;BMP180;54434;50.096;20.082;2023-03-14T11:25:29;97130.20;;;16.40
67822;BMP180;54434;50.096;20.082;2023-03-14T11:28:26;97124.60;;;16.30
67822;BMP180;54434;50.096;20.082;2023-03-14T11:31:18;97125.60;;;16.20
67822;BMP180;54434;50.096;20.082;2023-03-14T11:34:04;97117.40;;;16.20
67822;BMP180;54434;50.096;20.082;2023-03-14T11:36:53;97112.20;;;16.12
67822;BMP180;54434;50.096;20.082;2023-03-14T11:39:41;97116.80;;;16.10
67822;BMP180;54434;50.096;20.082;2023-03-14T11:42:22;97112.20;;;16.10
67822;BMP180;54434;50.096;20.082;2023-03-14T11:45:04;97110.80;;;16.10
67822;BMP180;54434;50.096;20.082;2023-03-14T11:47:56;97107.20;;;16.00
67822;BMP180;54434;50.096;20.082;2023-03-14T11:50:37;97112.20;;;15.90
67822;BMP180;54434;50.096;20.082;2023-03-14T11:53:20;97111.20;;;15.84
67822;BMP180;54434;50.096;20.082;2023-03-14T11:55:58;97112.60;;;15.82
67822;BMP180;54434;50.096;20.082;2023-03-14T11:58:39;97116.40;;;15.90
67822;BMP180;54434;50.096;20.082;2023-03-14T12:01:22;97112.00;;;15.90
67822;BMP180;54434;50.096;20.082;2023-03-14T12:04:09;97107.40;;;15.90
67822;BMP180;54434;50.096;20.082;2023-03-14T12:06:53;97117.60;;;15.88
67822;BMP180;54434;50.096;20.082;2023-03-14T12:09:32;97117.20;;;15.80
67822;BMP180;54434;50.096;20.082;2023-03-14T12:12:20;97115.80;;;15.70
67822;BMP180;54434;50.096;20.082;2023-03-14T12:15:03;97109.40;;;15.70
67822;BMP180;54434;50.096;20.082;2023-03-14T12:17:42;97104.20;;;15.60
67822;BMP180;54434;50.096;20.082;2023-03-14T12:20:23;97111.40;;;15.50
67822;BMP180;54434;50.096;20.082;2023-03-14T12:23:09;97110.60;;;15.50
67822;BMP180;54434;50.096;20.082;2023-03-14T12:25:48;97108.40;;;15.44
67822;BMP180;54434;50.096;20.082;2023-03-14T12:28:48;97106.00;;;15.40
67822;BMP180;54434;50.096;20.082;2023-03-14T12:31:48;97099.00;;;15.34
67822;BMP180;54434;50.096;20.082;2023-03-14T12:34:34;97092.20;;;15.30
67822;BMP180;54434;50.096;20.082;2023-03-14T12:37:27;97085.40;;;15.30
67822;BMP180;54434;50.096;20.082;2023-03-14T12:40:25;97076.40;;;15.40
67822;BMP180;54434;50.096;20.082;2023-03-14T12:43:26;97067.60;;;15.40
67822;BMP180;54434;50.096;20.082;2023-03-14T12:46:24;97066.80;;;15.40
67822;BMP180;54434;50.096;20.082;2023-03-14T12:49:11;97066.00;;;15.40
67822;BMP180;54434;50.096;20.082;2023-03-14T12:51:48;97067.80;;;15.44
67822;BMP180;54434;50.096;20.082;2023-03-14T12:54:41;97065.40;;;15.50
67822;BMP180;54434;50.096;20.082;2023-03-14T12:57:35;97056.80;;;15.50
67822;BMP180;54434;50.096;20.082;2023-03-14T13:00:29;97053.80;;;15.40
67822;BMP180;54434;50.096;20.082;2023-03-14T13:03:20;97055.00;;;15.40
67822;BMP180;54434;50.096;20.082;2023-03-14T13:06:03;97062.60;;;15.30
67822;BMP180;54434;50.096;20.082;2023-03-14T13:08:43;97066.60;;;15.24
67822;BMP180;54434;50.096;20.082;2023-03-14T13:11:21;97069.00;;;15.20
67822;BMP180;54434;50.096;20.082;2023-03-14T13:14:02;97072.40;;;15.12
67822;BMP180;54434;50.096;20.082;2023-03-14T13:16:38;97079.80;;;15.10
67822;BMP180;54434;50.096;20.082;2023-03-14T13:19:21;97076.20;;;15.00
67822;BMP180;54434;50.096;20.082;2023-03-14T13:22:16;97081.40;;;14.90
67822;BMP180;54434;50.096;20.082;2023-03-14T13:25:00;97076.00;;;14.80
67822;BMP180;54434;50.096;20.082;2023-03-14T13:27:39;97079.80;;;14.80
67822;BMP180;54434;50.096;20.082;2023-03-14T13:30:41;97081.00;;;14.70
67822;BMP180;54434;50.096;20.082;2023-03-14T13:33:21;97084.00;;;14.60
67822;BMP180;54434;50.096;20.082;2023-03-14T13:36:03;97088.40;;;14.50
67822;BMP180;54434;50.096;20.082;2023-03-14T13:38:40;97092.40;;;14.50
67822;BMP180;54434;50.096;20.082;2023-03-14T13:41:17;97093.80;;;14.42
67822;BMP180;54434;50.096;20.082;2023-03-14T13:44:01;97094.20;;;14.40
67822;BMP180;54434;50.096;20.082;2023-03-14T13:46:39;97100.60;;;14.40
67822;BMP180;54434;50.096;20.082;2023-03-14T13:49:23;97102.60;;;14.30
67822;BMP180;54434;50.096;20.082;2023-03-14T13:52:00;97099.00;;;14.20
67822;BMP180;54434;50.096;20.082;2023-03-14T13:54:40;97097.60;;;14.20
67822;BMP180;54434;50.096;20.082;2023-03-14T13:57:16;97098.80;;;14.10
67822;BMP180;54434;50.096;20.082;2023-03-14T14:00:16;97098.60;;;14.10
67822;BMP180;54434;50.096;20.082;2023-03-14T14:02:54;97105.40;;;14.00
67822;BMP180;54434;50.096;20.082;2023-03-14T14:05:32;97107.20;;;14.00
67822;BMP180;54434;50.096;20.082;2023-03-14T14:08:12;97114.40;;;13.90
67822;BMP180;54434;50.096;20.082;2023-03-14T14:10:50;97113.80;;;13.90
67822;BMP180;54434;50.096;20.082;2023-03-14T14:13:34;97115.60;;;13.80
67822;BMP180;54434;50.096;20.082;2023-03-14T14:16:13;97119.20;;;13.80
67822;BMP180;54434;50.096;20.082;2023-03-14T14:18:50;97126.40;;;13.70
67822;BMP180;54434;50.096;20.082;2023-03-14T14:21:28;97133.60;;;13.68
67822;BMP180;54434;50.096;20.082;2023-03-14T14:24:07;97138.40;;;13.60
67822;BMP180;54434;50.096;20.082;2023-03-14T14:26:52;97139.80;;;13.50
67822;BMP180;54434;50.096;20.082;2023-03-14T14:29:34;97133.80;;;13.42
67822;BMP180;54434;50.096;20.082;2023-03-14T14:32:17;97128.20;;;13.40
67822;BMP180;54434;50.096;20.082;2023-03-14T14:35:02;97125.20;;;13.30
67822;BMP180;54434;50.096;20.082;2023-03-14T14:37:45;97127.20;;;13.30
67822;BMP180;54434;50.096;20.082;2023-03-14T14:40:26;97126.00;;;13.20
67822;BMP180;54434;50.096;20.082;2023-03-14T14:43:10;97128.20;;;13.20
67822;BMP180;54434;50.096;20.082;2023-03-14T14:45:54;97135.20;;;13.10
67822;BMP180;54434;50.096;20.082;2023-03-14T14:48:37;97140.20;;;13.00
67822;BMP180;54434;50.096;20.082;2023-03-14T14:51:24;97140.00;;;13.00
67822;BMP180;54434;50.096;20.082;2023-03-14T14:54:15;97146.40;;;12.90
67822;BMP180;54434;50.096;20.082;2023-03-14T14:56:54;97153.40;;;12.86
67822;BMP180;54434;50.096;20.082;2023-03-14T14:59:44;97148.40;;;12.78
67822;BMP180;54434;50.096;20.082;2023-03-14T15:02:38;97143.60;;;12.62
67822;BMP180;54434;50.096;20.082;2023-03-14T15:05:21;97148.60;;;12.50
67822;BMP180;54434;50.096;20.082;2023-03-14T15:07:58;97147.20;;;12.40
67822;BMP180;54434;50.096;20.082;2023-03-14T15:10:35;97145.00;;;12.30
67822;BMP180;54434;50.096;20.082;2023-03-14T15:13:11;97137.20;;;12.20
67822;BMP180;54434;50.096;20.082;2023-03-14T15:15:48;97143.80;;;12.20
67822;BMP180;54434;50.096;20.082;2023-03-14T15:18:33;97151.20;;;12.10
67822;BMP180;54434;50.096;20.082;2023-03-14T15:21:10;97153.80;;;12.00
67822;BMP180;54434;50.096;20.082;2023-03-14T15:23:47;97165.40;;;12.00